createdAt,value
2022-08-17T00:02:26.755Z,100341.19
2022-08-17T00:04:55.412Z,100341.50
2022-08-17T00:07:22.948Z,100342.66
2022-08-17T00:09:50.252Z,100347.38
2022-08-17T00:12:43.611Z,100347.53
2022-08-17T00:15:05.871Z,100341.53
2022-08-17T00:17:35.768Z,100340.00
2022-08-17T00:20:04.381Z,100337.50
2022-08-17T00:22:36.091Z,100343.19
2022-08-17T00:25:07.613Z,100343.19
2022-08-17T00:27:35.567Z,100341.72
2022-08-17T00:30:04.064Z,100346.25
2022-08-17T00:33:14.033Z,100355.28
2022-08-17T00:35:27.596Z,100343.38
2022-08-17T00:37:55.169Z,100347.06
2022-08-17T00:40:22.487Z,100348.75
2022-08-17T00:42:53.385Z,100343.38
2022-08-17T00:45:22.011Z,100339.03
2022-08-17T00:47:49.561Z,100347.25
2022-08-17T00:50:18.755Z,100350.09
2022-08-17T00:52:52.421Z,100360.16
2022-08-17T00:55:19.956Z,100358.63
2022-08-17T00:57:53.375Z,100357.28
2022-08-17T01:00:28.277Z,100355.81
2022-08-17T01:03:02.406Z,100356.97
2022-08-17T01:05:31.811Z,100356.13
2022-08-17T01:08:00.667Z,100355.28
2022-08-17T01:10:58.657Z,100363.34
2022-08-17T01:13:21.422Z,100363.66
2022-08-17T01:16:11.653Z,100363.84
2022-08-17T01:18:39.203Z,100366.69
2022-08-17T01:21:11.443Z,100369.50
2022-08-17T01:23:38.545Z,100372.38
2022-08-17T01:26:06.303Z,100367.34
2022-08-17T01:28:55.142Z,100371.84
2022-08-17T01:31:22.905Z,100370.00
2022-08-17T01:33:50.015Z,100363.81
2022-08-17T01:36:17.123Z,100367.34
2022-08-17T01:38:44.279Z,100372.69
2022-08-17T01:41:14.656Z,100382.56
2022-08-17T01:44:04.309Z,100377.56
2022-08-17T01:46:35.191Z,100377.88
2022-08-17T01:49:06.541Z,100376.38
2022-08-17T01:51:33.879Z,100371.19
2022-08-17T01:54:05.320Z,100375.72
2022-08-17T01:56:34.408Z,100377.66
2022-08-17T01:59:01.660Z,100371.47
2022-08-17T02:01:30.753Z,100373.31
2022-08-17T02:04:00.986Z,100374.34
2022-08-17T02:06:45.063Z,100373.50
2022-08-17T02:09:22.333Z,100374.50
2022-08-17T02:11:54.066Z,100365.66
2022-08-17T02:14:21.859Z,100370.31
2022-08-17T02:16:49.163Z,100375.84
2022-08-17T02:19:17.245Z,100382.53
2022-08-17T02:21:46.636Z,100379.00
2022-08-17T02:25:00.984Z,100378.31
2022-08-17T02:27:06.824Z,100381.19
2022-08-17T02:29:34.194Z,100382.34
2022-08-17T02:32:01.816Z,100382.50
2022-08-17T02:34:29.104Z,100375.63
2022-08-17T02:36:56.203Z,100374.13
2022-08-17T02:39:23.391Z,100369.94
2022-08-17T02:41:50.514Z,100373.63
2022-08-17T02:44:39.614Z,100373.78
2022-08-17T02:47:04.847Z,100378.47
2022-08-17T02:49:31.950Z,100376.97
2022-08-17T02:51:59.241Z,100371.94
2022-08-17T02:54:40.076Z,100371.28
2022-08-17T02:57:10.346Z,100373.25
2022-08-17T02:59:38.702Z,100377.94
2022-08-17T03:02:11.079Z,100368.22
2022-08-17T03:04:38.672Z,100371.25
2022-08-17T03:07:06.622Z,100366.03
2022-08-17T03:09:33.767Z,100369.56
2022-08-17T03:12:09.057Z,100364.53
2022-08-17T03:14:41.731Z,100362.88
2022-08-17T03:17:16.934Z,100362.53
2022-08-17T03:19:44.889Z,100366.16
2022-08-17T03:22:35.342Z,100368.19
2022-08-17T03:24:59.132Z,100370.16
2022-08-17T03:27:26.565Z,100368.50
2022-08-17T03:29:54.321Z,100369.50
2022-08-17T03:32:21.505Z,100359.81
2022-08-17T03:34:48.833Z,100360.78
2022-08-17T03:37:15.948Z,100359.97
2022-08-17T03:39:43.161Z,100360.13
2022-08-17T03:42:14.335Z,100364.63
2022-08-17T03:45:00.909Z,100363.94
2022-08-17T03:47:46.972Z,100360.63
2022-08-17T03:50:33.335Z,100360.78
2022-08-17T03:53:21.071Z,100364.28
2022-08-17T03:56:06.757Z,100356.94
2022-08-17T03:58:33.847Z,100370.81
2022-08-17T04:01:01.286Z,100365.47
2022-08-17T04:03:28.664Z,100362.63
2022-08-17T04:05:55.858Z,100364.16
2022-08-17T04:08:22.972Z,100365.69
2022-08-17T04:10:50.073Z,100368.19
2022-08-17T04:13:24.257Z,100367.88
2022-08-17T04:15:53.721Z,100363.34
2022-08-17T04:18:20.823Z,100363.19
2022-08-17T04:20:47.921Z,100366.53
2022-08-17T04:23:17.160Z,100364.38
2022-08-17T04:25:48.290Z,100367.56
2022-08-17T04:28:16.623Z,100369.09
2022-08-17T04:30:45.086Z,100363.38
2022-08-17T04:33:15.576Z,100368.41
2022-08-17T04:35:45.637Z,100372.28
2022-08-17T04:38:15.685Z,100374.44
2022-08-17T04:41:02.114Z,100380.16
2022-08-17T04:43:31.093Z,100376.97
2022-08-17T04:46:00.975Z,100385.19
2022-08-17T04:48:36.456Z,100389.22
2022-08-17T04:51:15.155Z,100394.75
2022-08-17T04:53:44.551Z,100388.94
2022-08-17T04:56:18.142Z,100387.28
2022-08-17T04:58:49.906Z,100387.44
2022-08-17T05:01:23.319Z,100391.97
2022-08-17T05:03:53.626Z,100392.97
2022-08-17T05:06:20.903Z,100390.28
2022-08-17T05:08:47.970Z,100393.63
2022-08-17T05:11:15.078Z,100392.78
2022-08-17T05:13:42.258Z,100398.97
2022-08-17T05:16:09.450Z,100394.78
2022-08-17T05:18:38.697Z,100401.97
2022-08-17T05:21:06.867Z,100400.13
2022-08-17T05:23:41.969Z,100408.16
2022-08-17T05:26:25.524Z,100402.78
2022-08-17T05:29:00.447Z,100402.75
2022-08-17T05:31:30.821Z,100412.78
2022-08-17T05:33:58.401Z,100412.09
2022-08-17T05:36:43.722Z,100405.22
2022-08-17T05:39:16.356Z,100407.00
2022-08-17T05:41:46.845Z,100410.50
2022-08-17T05:44:14.046Z,100418.50
2022-08-17T05:46:43.765Z,100410.09
2022-08-17T05:49:11.460Z,100413.41
2022-08-17T05:51:41.377Z,100422.91
2022-08-17T05:54:27.749Z,100421.81
2022-08-17T05:57:25.455Z,100419.09
2022-08-17T05:59:59.061Z,100421.88
2022-08-17T06:02:47.896Z,100424.38
2022-08-17T06:05:27.379Z,100430.50
2022-08-17T06:08:03.815Z,100422.22
2022-08-17T06:10:48.382Z,100431.91
2022-08-17T06:13:36.575Z,100436.81
2022-08-17T06:16:33.050Z,100441.13
2022-08-17T06:19:13.443Z,100434.63
2022-08-17T06:21:44.655Z,100440.22
2022-08-17T06:24:36.518Z,100447.38
2022-08-17T06:27:27.475Z,100442.19
2022-08-17T06:30:09.197Z,100436.84
2022-08-17T06:32:43.675Z,100443.44
2022-08-17T06:35:13.422Z,100450.78
2022-08-17T06:37:59.436Z,100448.53
2022-08-17T06:40:47.734Z,100448.50
2022-08-17T06:43:24.379Z,100448.66
2022-08-17T06:46:04.146Z,100450.09
2022-08-17T06:48:49.661Z,100452.28
2022-08-17T06:51:25.896Z,100454.47
2022-08-17T06:54:22.791Z,100451.72
2022-08-17T06:57:03.830Z,100454.53
2022-08-17T06:59:56.226Z,100449.31
2022-08-17T07:02:52.589Z,100453.16
2022-08-17T07:05:34.133Z,100446.63
2022-08-17T07:08:17.011Z,100452.31
2022-08-17T07:10:51.134Z,100455.75
2022-08-17T07:13:54.444Z,100450.25
2022-08-17T07:16:36.368Z,100451.81
2022-08-17T07:19:04.598Z,100453.53
2022-08-17T07:21:42.037Z,100457.72
2022-08-17T07:24:30.671Z,100448.41
2022-08-17T07:27:13.016Z,100458.69
2022-08-17T07:29:46.971Z,100456.81
2022-08-17T07:32:18.653Z,100456.31
2022-08-17T07:35:12.324Z,100450.59
2022-08-17T07:37:56.106Z,100460.78
2022-08-17T07:40:27.168Z,100460.56
2022-08-17T07:43:22.298Z,100452.09
2022-08-17T07:46:21.540Z,100457.13
2022-08-17T07:48:54.746Z,100456.50
2022-08-17T07:51:29.574Z,100463.22
2022-08-17T07:54:19.754Z,100466.16
2022-08-17T07:56:54.128Z,100463.00
2022-08-17T07:59:24.372Z,100465.72
2022-08-17T08:02:07.925Z,100466.97
2022-08-17T08:04:59.836Z,100469.25
2022-08-17T08:07:34.634Z,100468.84
2022-08-17T08:10:04.868Z,100465.09
2022-08-17T08:12:38.770Z,100465.47
2022-08-17T08:15:25.655Z,100470.66
2022-08-17T08:17:55.872Z,100466.69
2022-08-17T08:20:53.347Z,100467.50
2022-08-17T08:23:41.728Z,100469.78
2022-08-17T08:26:36.085Z,100474.16
2022-08-17T08:29:09.332Z,100477.88
2022-08-17T08:32:03.896Z,100475.38
2022-08-17T08:35:00.635Z,100483.25
2022-08-17T08:37:49.422Z,100479.47
2022-08-17T08:40:31.919Z,100477.16
2022-08-17T08:43:22.581Z,100480.22
2022-08-17T08:45:57.748Z,100470.59
2022-08-17T08:48:56.244Z,100470.50
2022-08-17T08:51:31.532Z,100469.56
2022-08-17T08:54:12.485Z,100472.19
2022-08-17T08:57:19.802Z,100466.50
2022-08-17T08:59:41.809Z,100469.25
2022-08-17T09:02:29.758Z,100473.56
2022-08-17T09:05:14.347Z,100477.06
2022-08-17T09:08:05.293Z,100469.63
2022-08-17T09:11:02.416Z,100465.84
2022-08-17T09:13:54.403Z,100475.00
2022-08-17T09:16:34.976Z,100468.72
2022-08-17T09:19:12.189Z,100460.94
2022-08-17T09:22:01.058Z,100464.53
2022-08-17T09:24:35.975Z,100465.56
2022-08-17T09:27:46.319Z,100467.03
2022-08-17T09:30:14.697Z,100465.25
2022-08-17T09:32:46.071Z,100457.34
2022-08-17T09:35:19.916Z,100463.56
2022-08-17T09:37:52.721Z,100463.38
2022-08-17T09:40:38.035Z,100462.19
2022-08-17T09:43:24.783Z,100460.41
2022-08-17T09:45:57.138Z,100460.00
2022-08-17T09:48:41.963Z,100461.06
2022-08-17T09:51:25.102Z,100475.53
2022-08-17T09:53:52.226Z,100470.44
2022-08-17T09:56:41.062Z,100471.94
2022-08-17T09:59:38.504Z,100461.84
2022-08-17T10:02:26.524Z,100454.53
2022-08-17T10:05:21.865Z,100452.19
2022-08-17T10:08:09.328Z,100457.72
2022-08-17T10:10:56.232Z,100455.03
2022-08-17T10:13:53.128Z,100454.50
2022-08-17T10:16:38.211Z,100449.97
2022-08-17T10:19:05.261Z,100445.50
2022-08-17T10:22:00.966Z,100451.13
2022-08-17T10:25:22.331Z,100457.59
2022-08-17T10:27:55.430Z,100456.44
2022-08-17T10:30:26.777Z,100459.63
2022-08-17T10:33:01.425Z,100457.06
2022-08-17T10:35:36.929Z,100458.28
2022-08-17T10:38:37.774Z,100455.31
2022-08-17T10:41:30.749Z,100461.97
2022-08-17T10:44:38.307Z,100458.06
2022-08-17T10:47:09.300Z,100453.00
2022-08-17T10:49:54.021Z,100451.44
2022-08-17T10:52:27.677Z,100461.06
2022-08-17T10:54:56.718Z,100457.09
2022-08-17T10:57:32.017Z,100458.28
2022-08-17T11:00:15.846Z,100459.25
2022-08-17T11:02:51.445Z,100455.69
2022-08-17T11:05:18.717Z,100453.84
2022-08-17T11:08:07.633Z,100458.03
2022-08-17T11:11:12.996Z,100443.00
2022-08-17T11:13:57.799Z,100436.91
2022-08-17T11:16:50.730Z,100432.22
2022-08-17T11:19:34.346Z,100433.88
2022-08-17T11:22:19.681Z,100428.97
2022-08-17T11:24:48.067Z,100430.31
2022-08-17T11:27:30.119Z,100432.44
2022-08-17T11:30:08.264Z,100426.66
2022-08-17T11:32:54.418Z,100428.00
2022-08-17T11:35:21.987Z,100429.09
2022-08-17T11:38:16.374Z,100421.69
2022-08-17T11:41:07.888Z,100418.78
2022-08-17T11:44:26.399Z,100420.28
2022-08-17T11:48:16.151Z,100414.75
2022-08-17T11:51:07.341Z,100416.69
2022-08-17T11:53:37.496Z,100417.19
2022-08-17T11:56:04.625Z,100417.75
2022-08-17T11:58:31.717Z,100404.97
2022-08-17T12:01:00.765Z,100404.22
2022-08-17T12:03:31.824Z,100410.53
2022-08-17T12:06:20.353Z,100402.56
2022-08-17T12:08:55.335Z,100410.53
2022-08-17T12:11:55.159Z,100417.69
2022-08-17T12:14:51.358Z,100404.28
2022-08-17T12:17:39.635Z,100410.06
2022-08-17T12:20:18.555Z,100411.19
2022-08-17T12:23:01.098Z,100411.16
2022-08-17T12:25:41.851Z,100416.69
2022-08-17T12:28:34.160Z,100411.19
2022-08-17T12:31:16.360Z,100415.03
2022-08-17T12:33:45.462Z,100416.13
2022-08-17T12:36:15.295Z,100412.28
2022-08-17T12:38:59.493Z,100411.19
2022-08-17T12:41:47.413Z,100423.28
2022-08-17T12:44:21.405Z,100413.09
2022-08-17T12:46:53.971Z,100409.75
2022-08-17T12:49:42.250Z,100408.13
2022-08-17T12:52:16.077Z,100400.47
2022-08-17T12:54:59.588Z,100407.88
2022-08-17T12:57:32.757Z,100407.34
2022-08-17T13:00:17.678Z,100403.16
2022-08-17T13:02:49.216Z,100387.44
2022-08-17T13:05:48.535Z,100386.09
2022-08-17T13:08:19.099Z,100377.38
2022-08-17T13:11:09.306Z,100380.00
2022-08-17T13:13:39.435Z,100377.81
2022-08-17T13:16:12.531Z,100375.63
2022-08-17T13:18:53.025Z,100370.91
2022-08-17T13:21:30.436Z,100370.63
2022-08-17T13:24:03.822Z,100385.69
2022-08-17T13:26:43.176Z,100368.50
2022-08-17T13:29:26.321Z,100377.38
2022-08-17T13:32:02.744Z,100379.63
2022-08-17T13:38:51.095Z,100383.66
2022-08-17T13:41:34.532Z,100371.91
2022-08-17T13:44:02.175Z,100364.78
2022-08-17T13:46:32.226Z,100372.13
2022-08-17T13:49:00.873Z,100372.19
2022-08-17T13:51:42.316Z,100374.44
2022-08-17T13:54:30.055Z,100371.16
2022-08-17T13:57:00.860Z,100366.94
2022-08-17T13:59:48.218Z,100366.38
2022-08-17T14:02:20.761Z,100372.56
2022-08-17T14:04:48.123Z,100375.41
2022-08-17T14:07:16.008Z,100374.63
2022-08-17T14:09:57.744Z,100372.97
2022-08-17T14:12:27.613Z,100369.72
2022-08-17T14:14:56.379Z,100362.59
2022-08-17T14:17:24.799Z,100368.84
2022-08-17T14:19:52.429Z,100360.06
2022-08-17T14:22:26.978Z,100361.91
2022-08-17T14:24:54.145Z,100368.16
2022-08-17T14:27:21.904Z,100351.25
2022-08-17T14:29:49.370Z,100357.75
2022-08-17T14:32:18.496Z,100360.81
2022-08-17T14:34:46.575Z,100367.03
2022-08-17T14:37:13.743Z,100354.31
2022-08-17T14:39:40.997Z,100359.84
2022-08-17T14:42:11.463Z,100357.63
2022-08-17T14:44:39.453Z,100358.66
2022-08-17T14:47:07.748Z,100359.25
2022-08-17T14:49:34.857Z,100353.22
2022-08-17T14:52:02.161Z,100358.78
2022-08-17T14:54:33.869Z,100351.72
2022-08-17T14:57:22.220Z,100355.56
2022-08-17T14:59:53.204Z,100354.03
2022-08-17T15:02:30.189Z,100356.72
2022-08-17T15:05:03.394Z,100351.25
2022-08-17T15:07:31.400Z,100351.44
2022-08-17T15:10:01.512Z,100355.16
2022-08-17T15:12:33.211Z,100346.53
2022-08-17T15:15:06.195Z,100345.88
2022-08-17T15:17:45.098Z,100354.81
2022-08-17T15:20:16.324Z,100348.84
2022-08-17T15:22:44.921Z,100350.19
2022-08-17T15:25:13.098Z,100351.84
2022-08-17T15:27:40.466Z,100352.03
2022-08-17T15:30:09.399Z,100345.72
2022-08-17T15:32:38.329Z,100350.59
2022-08-17T15:35:07.810Z,100357.41
2022-08-17T15:37:36.337Z,100347.88
2022-08-17T15:40:05.414Z,100350.00
2022-08-17T15:42:32.903Z,100352.41
2022-08-17T15:45:06.024Z,100344.94
2022-08-17T15:47:33.145Z,100339.09
2022-08-17T15:50:00.641Z,100336.66
2022-08-17T15:52:30.024Z,100340.88
2022-08-17T15:54:59.374Z,100335.88
2022-08-17T15:57:27.343Z,100333.50
2022-08-17T15:59:58.712Z,100338.78
2022-08-17T16:03:44.680Z,100335.47
2022-08-17T16:05:22.300Z,100341.16
2022-08-17T16:07:52.599Z,100341.81
2022-08-17T16:10:20.949Z,100342.97
2022-08-17T16:12:49.883Z,100334.28
2022-08-17T16:15:17.942Z,100329.88
2022-08-17T16:17:45.071Z,100328.41
2022-08-17T16:20:20.421Z,100327.84
2022-08-17T16:22:50.123Z,100329.19
2022-08-17T16:25:47.184Z,100328.97
2022-08-17T16:28:12.377Z,100329.28
2022-08-17T16:30:39.800Z,100326.28
2022-08-17T16:33:07.027Z,100327.66
2022-08-17T16:35:34.160Z,100317.59
2022-08-17T16:38:02.658Z,100318.94
2022-08-17T16:40:31.232Z,100320.56
2022-08-17T16:43:03.563Z,100312.47
2022-08-17T16:45:36.366Z,100323.16
2022-08-17T16:48:04.381Z,100318.88
2022-08-17T16:50:32.270Z,100315.59
2022-08-17T16:53:08.209Z,100314.78
2022-08-17T16:55:35.722Z,100313.03
2022-08-17T16:58:06.303Z,100312.63
2022-08-17T17:00:33.754Z,100311.94
2022-08-17T17:03:30.609Z,100311.66
2022-08-17T17:06:08.014Z,100309.50
2022-08-17T17:08:40.680Z,100309.31
2022-08-17T17:11:21.386Z,100299.59
2022-08-17T17:13:58.490Z,100306.56
2022-08-17T17:16:28.741Z,100308.44
2022-08-17T17:19:15.189Z,100313.84
2022-08-17T17:21:53.233Z,100309.84
2022-08-17T17:24:28.912Z,100314.53
2022-08-17T17:27:19.519Z,100313.16
2022-08-17T17:29:55.167Z,100312.56
2022-08-17T17:32:38.532Z,100307.00
2022-08-17T17:35:12.080Z,100314.91
2022-08-17T17:37:40.188Z,100310.16
2022-08-17T17:40:13.939Z,100317.69
2022-08-17T17:42:42.206Z,100303.66
2022-08-17T17:45:16.838Z,100307.81
2022-08-17T17:47:44.563Z,100303.72
2022-08-17T17:50:12.332Z,100302.78
2022-08-17T17:52:52.466Z,100304.53
2022-08-17T17:55:44.753Z,100303.59
2022-08-17T17:58:32.062Z,100311.38
2022-08-17T18:01:10.179Z,100303.66
2022-08-17T18:04:11.204Z,100315.56
2022-08-17T18:06:58.057Z,100315.41
2022-08-17T18:10:01.652Z,100312.50
2022-08-17T18:12:44.054Z,100313.38
2022-08-17T18:15:25.522Z,100321.06
2022-08-17T18:18:16.012Z,100314.59
2022-08-17T18:20:55.790Z,100318.25
2022-08-17T18:23:27.924Z,100317.56
2022-08-17T18:25:56.602Z,100322.09
2022-08-17T18:28:27.344Z,100316.34
2022-08-17T18:31:06.781Z,100319.16
2022-08-17T18:33:39.170Z,100320.31
2022-08-17T18:37:16.013Z,100339.41
2022-08-17T18:39:46.651Z,100331.00
2022-08-17T18:42:28.834Z,100346.53
2022-08-17T18:44:56.428Z,100339.66
2022-08-17T18:47:28.283Z,100340.34
2022-08-17T18:49:58.323Z,100333.75
2022-08-17T18:52:33.788Z,100335.88
2022-08-17T18:55:20.437Z,100336.94
2022-08-17T18:57:55.171Z,100336.34
2022-08-17T19:00:43.883Z,100338.47
2022-08-17T19:03:20.194Z,100338.47
2022-08-17T19:05:55.838Z,100336.00
2022-08-17T19:08:29.084Z,100331.41
2022-08-17T19:10:58.848Z,100340.38
2022-08-17T19:13:32.416Z,100335.19
2022-08-17T19:16:13.908Z,100335.22
2022-08-17T19:19:04.707Z,100336.28
2022-08-17T19:21:39.218Z,100333.59
2022-08-17T19:24:21.905Z,100339.00
2022-08-17T19:26:56.948Z,100330.22
2022-08-17T19:29:36.901Z,100332.31
2022-08-17T19:32:04.569Z,100330.44
2022-08-17T19:34:34.568Z,100331.28
2022-08-17T19:37:26.495Z,100329.22
2022-08-17T19:40:51.008Z,100336.50
2022-08-17T19:43:19.564Z,100325.88
2022-08-17T19:46:13.294Z,100331.09
2022-08-17T19:48:56.029Z,100329.84
2022-08-17T19:51:58.760Z,100335.03
2022-08-17T19:54:47.878Z,100328.78
2022-08-17T19:57:20.399Z,100330.41
2022-08-17T20:00:13.359Z,100326.00
2022-08-17T20:02:46.496Z,100329.31
2022-08-17T20:05:25.096Z,100324.53
2022-08-17T20:08:04.052Z,100322.25
2022-08-17T20:11:09.620Z,100321.81
2022-08-17T20:13:41.882Z,100331.78
2022-08-17T20:16:10.099Z,100322.63
2022-08-17T20:18:52.388Z,100322.41
2022-08-17T20:21:26.225Z,100321.16
2022-08-17T20:24:01.829Z,100324.03
2022-08-17T20:26:51.247Z,100325.69
2022-08-17T20:29:39.856Z,100324.41
2022-08-17T20:32:17.222Z,100323.34
2022-08-17T20:34:46.121Z,100321.84
2022-08-17T20:37:13.363Z,100321.44
2022-08-17T20:39:46.265Z,100328.44
2022-08-17T20:42:22.540Z,100325.53
2022-08-17T20:44:52.709Z,100320.72
2022-08-17T20:48:15.104Z,100323.00
2022-08-17T20:50:37.880Z,100319.44
2022-08-17T20:53:08.583Z,100327.91
2022-08-17T20:55:35.809Z,100334.75
2022-08-17T20:58:29.847Z,100330.97
2022-08-17T21:00:59.130Z,100332.41
2022-08-17T21:03:47.593Z,100333.81
2022-08-17T21:06:18.903Z,100336.28
2022-08-17T21:09:29.690Z,100331.69
2022-08-17T21:12:04.289Z,100331.38
2022-08-17T21:14:58.102Z,100331.34
2022-08-17T21:17:34.238Z,100327.59
2022-08-17T21:20:11.954Z,100330.03
2022-08-17T21:22:51.462Z,100332.28
2022-08-17T21:25:42.295Z,100330.19
2022-08-17T21:28:15.473Z,100335.94
2022-08-17T21:30:52.712Z,100344.41
2022-08-17T21:33:25.179Z,100346.69
2022-08-17T21:35:58.641Z,100345.41
2022-08-17T21:38:37.612Z,100343.28
2022-08-17T21:41:04.951Z,100339.94
2022-08-17T21:43:35.295Z,100343.88
2022-08-17T21:46:05.761Z,100341.34
2022-08-17T21:48:42.296Z,100337.38
2022-08-17T21:51:12.810Z,100332.19
2022-08-17T21:53:42.847Z,100336.13
2022-08-17T21:56:12.274Z,100338.16
2022-08-17T21:58:45.396Z,100353.69
2022-08-17T22:01:31.157Z,100350.31
2022-08-17T22:03:59.638Z,100348.88
2022-08-17T22:06:39.671Z,100344.66
2022-08-17T22:09:14.648Z,100348.19
2022-08-17T22:11:59.154Z,100349.41
2022-08-17T22:14:52.847Z,100348.94
2022-08-17T22:17:36.416Z,100353.50
2022-08-17T22:20:14.697Z,100357.41
2022-08-17T22:23:12.645Z,100352.38
2022-08-17T22:25:56.619Z,100347.22
2022-08-17T22:28:49.099Z,100361.03
2022-08-17T22:31:24.981Z,100350.66
2022-08-17T22:33:59.775Z,100363.31
2022-08-17T22:36:29.974Z,100360.16
2022-08-17T22:39:04.072Z,100357.66
2022-08-17T22:41:50.474Z,100363.22
2022-08-17T22:44:37.539Z,100356.38
2022-08-17T22:47:21.282Z,100360.88
2022-08-17T22:49:53.880Z,100363.16
2022-08-17T22:53:00.836Z,100367.25
2022-08-17T22:55:47.050Z,100356.84
2022-08-17T22:58:36.908Z,100365.13
2022-08-17T23:01:28.785Z,100363.63
2022-08-17T23:04:01.759Z,100364.66
2022-08-17T23:06:30.166Z,100362.16
2022-08-17T23:08:58.106Z,100364.19
2022-08-17T23:11:36.712Z,100362.53
2022-08-17T23:14:15.919Z,100363.72
2022-08-17T23:16:43.123Z,100353.34
2022-08-17T23:19:11.525Z,100356.03
2022-08-17T23:21:38.853Z,100350.81
2022-08-17T23:24:08.830Z,100355.56
2022-08-17T23:26:38.093Z,100349.72
2022-08-17T23:29:06.702Z,100349.44
2022-08-17T23:31:34.783Z,100346.97
2022-08-17T23:34:03.331Z,100345.44
2022-08-17T23:36:31.855Z,100351.00
2022-08-17T23:38:59.080Z,100349.50
2022-08-17T23:41:28.006Z,100338.94
2022-08-17T23:43:55.381Z,100345.34
2022-08-17T23:46:25.003Z,100347.38
2022-08-17T23:48:53.498Z,100345.72
2022-08-17T23:51:24.247Z,100339.69
2022-08-17T23:53:56.099Z,100345.25
2022-08-17T23:56:26.148Z,100340.91
2022-08-17T23:58:55.081Z,100345.63
